Tuesday night’s bike ride

Last night, 18 miles, 810 metres of climbing and descending. Ambleside, Jenkins Crag, Troutbeck, Dubbs Reservoir and even a little bit on Kirkstone Pass.
There are no photos, as it’s getting dark earlier in the ride as we head towards winter.
It’s also hard to believe a party of seven had five punctures between them during the ride.
Here’s the GPX.
————————————————————————————–
<?xml version="1.0" encoding="UTF-8" standalone="yes"?>
<gpx version="1.1" creator="GPS Utility 4.20 – http://www.gpsu.co.uk&#34;
xmlns="http://www.topografix.com/GPX/1/1&#34;
xmlns:xsi="http://www.w3.org/2001/XMLSchema-instance&#34;
xsi:schemaLocation="http://www.topografix.com/GPX/1/1 http://www.topografix.com/GPX/1/1/gpx.xsd"&#62;

<trk>
<trkseg>
<trkpt lat="54.433833" lon="-2.964220"><ele>52</ele><time>2009-09-29T17:19:53Z</time></trkpt>
<trkpt lat="54.433533" lon="-2.963535"><ele>58</ele><time>2009-09-29T17:25:41Z</time></trkpt>
<trkpt lat="54.433216" lon="-2.963805"><ele>68</ele><time>2009-09-29T17:33:00Z</time></trkpt>
<trkpt lat="54.432138" lon="-2.962654"><ele>65</ele><time>2009-09-29T17:44:57Z</time></trkpt>
<trkpt lat="54.430162" lon="-2.962423"><ele>66</ele><time>2009-09-29T17:45:35Z</time></trkpt>
<trkpt lat="54.427170" lon="-2.962306"><ele>73</ele><time>2009-09-29T17:46:15Z</time></trkpt>
<trkpt lat="54.425997" lon="-2.961801"><ele>69</ele><time>2009-09-29T17:46:37Z</time></trkpt>
<trkpt lat="54.425230" lon="-2.961074"><ele>67</ele><time>2009-09-29T17:47:09Z</time></trkpt>
<trkpt lat="54.424236" lon="-2.960604"><ele>76</ele><time>2009-09-29T17:48:14Z</time></trkpt>
<trkpt lat="54.424037" lon="-2.959659"><ele>79</ele><time>2009-09-29T17:48:51Z</time></trkpt>
<trkpt lat="54.423696" lon="-2.958464"><ele>94</ele><time>2009-09-29T17:49:41Z</time></trkpt>
<trkpt lat="54.422638" lon="-2.958147"><ele>97</ele><time>2009-09-29T17:50:16Z</time></trkpt>
<trkpt lat="54.420819" lon="-2.957380"><ele>113</ele><time>2009-09-29T17:51:15Z</time></trkpt>
<trkpt lat="54.419901" lon="-2.956480"><ele>127</ele><time>2009-09-29T17:52:00Z</time></trkpt>
<trkpt lat="54.418948" lon="-2.955394"><ele>142</ele><time>2009-09-29T17:52:33Z</time></trkpt>
<trkpt lat="54.419017" lon="-2.954518"><ele>145</ele><time>2009-09-29T17:53:56Z</time></trkpt>
<trkpt lat="54.418681" lon="-2.953893"><ele>158</ele><time>2009-09-29T17:55:08Z</time></trkpt>
<trkpt lat="54.418516" lon="-2.953088"><ele>165</ele><time>2009-09-29T17:56:13Z</time></trkpt>
<trkpt lat="54.418182" lon="-2.952187"><ele>167</ele><time>2009-09-29T17:57:13Z</time></trkpt>
<trkpt lat="54.417548" lon="-2.951617"><ele>174</ele><time>2009-09-29T17:57:43Z</time></trkpt>
<trkpt lat="54.417635" lon="-2.950895"><ele>181</ele><time>2009-09-29T17:58:15Z</time></trkpt>
<trkpt lat="54.417203" lon="-2.949883"><ele>185</ele><time>2009-09-29T17:58:58Z</time></trkpt>
<trkpt lat="54.417247" lon="-2.948821"><ele>191</ele><time>2009-09-29T17:59:54Z</time></trkpt>
<trkpt lat="54.416881" lon="-2.947395"><ele>203</ele><time>2009-09-29T18:00:26Z</time></trkpt>
<trkpt lat="54.416848" lon="-2.945853"><ele>214</ele><time>2009-09-29T18:00:50Z</time></trkpt>
<trkpt lat="54.417165" lon="-2.944365"><ele>210</ele><time>2009-09-29T18:01:41Z</time></trkpt>
<trkpt lat="54.417503" lon="-2.941383"><ele>203</ele><time>2009-09-29T18:05:26Z</time></trkpt>
<trkpt lat="54.417237" lon="-2.938588"><ele>189</ele><time>2009-09-29T18:05:52Z</time></trkpt>
<trkpt lat="54.417036" lon="-2.937828"><ele>186</ele><time>2009-09-29T18:06:09Z</time></trkpt>
<trkpt lat="54.417337" lon="-2.937249"><ele>187</ele><time>2009-09-29T18:07:12Z</time></trkpt>
<trkpt lat="54.417613" lon="-2.936485"><ele>203</ele><time>2009-09-29T18:08:07Z</time></trkpt>
<trkpt lat="54.417280" lon="-2.935322"><ele>217</ele><time>2009-09-29T18:09:03Z</time></trkpt>
<trkpt lat="54.417067" lon="-2.933807"><ele>225</ele><time>2009-09-29T18:09:46Z</time></trkpt>
<trkpt lat="54.416849" lon="-2.932939"><ele>226</ele><time>2009-09-29T18:10:13Z</time></trkpt>
<trkpt lat="54.416213" lon="-2.932693"><ele>231</ele><time>2009-09-29T18:10:41Z</time></trkpt>
<trkpt lat="54.415487" lon="-2.932461"><ele>235</ele><time>2009-09-29T18:11:09Z</time></trkpt>
<trkpt lat="54.414296" lon="-2.930693"><ele>233</ele><time>2009-09-29T18:12:05Z</time></trkpt>
<trkpt lat="54.413468" lon="-2.929626"><ele>243</ele><time>2009-09-29T18:12:52Z</time></trkpt>
<trkpt lat="54.412037" lon="-2.927621"><ele>232</ele><time>2009-09-29T18:14:20Z</time></trkpt>
<trkpt lat="54.411532" lon="-2.924251"><ele>229</ele><time>2009-09-29T18:14:54Z</time></trkpt>
<trkpt lat="54.409879" lon="-2.921887"><ele>196</ele><time>2009-09-29T18:15:37Z</time></trkpt>
<trkpt lat="54.409298" lon="-2.920302"><ele>185</ele><time>2009-09-29T18:16:03Z</time></trkpt>
<trkpt lat="54.409148" lon="-2.918774"><ele>171</ele><time>2009-09-29T18:16:23Z</time></trkpt>
<trkpt lat="54.409246" lon="-2.917651"><ele>164</ele><time>2009-09-29T18:16:51Z</time></trkpt>
<trkpt lat="54.409479" lon="-2.916516"><ele>156</ele><time>2009-09-29T18:17:15Z</time></trkpt>
<trkpt lat="54.410066" lon="-2.916160"><ele>101</ele><time>2009-09-29T18:17:43Z</time></trkpt>
<trkpt lat="54.409531" lon="-2.914499"><ele>93</ele><time>2009-09-29T18:18:24Z</time></trkpt>
<trkpt lat="54.409601" lon="-2.913514"><ele>91</ele><time>2009-09-29T18:18:39Z</time></trkpt>
<trkpt lat="54.409585" lon="-2.912112"><ele>135</ele><time>2009-09-29T18:27:37Z</time></trkpt>
<trkpt lat="54.409536" lon="-2.911402"><ele>142</ele><time>2009-09-29T18:28:52Z</time></trkpt>
<trkpt lat="54.409714" lon="-2.910420"><ele>156</ele><time>2009-09-29T18:29:40Z</time></trkpt>
<trkpt lat="54.409164" lon="-2.909422"><ele>149</ele><time>2009-09-29T18:31:19Z</time></trkpt>
<trkpt lat="54.408501" lon="-2.909222"><ele>151</ele><time>2009-09-29T18:31:57Z</time></trkpt>
<trkpt lat="54.407837" lon="-2.907821"><ele>164</ele><time>2009-09-29T18:32:52Z</time></trkpt>
<trkpt lat="54.406069" lon="-2.907551"><ele>162</ele><time>2009-09-29T18:33:52Z</time></trkpt>
<trkpt lat="54.404963" lon="-2.907650"><ele>165</ele><time>2009-09-29T18:34:20Z</time></trkpt>
<trkpt lat="54.404104" lon="-2.907153"><ele>178</ele><time>2009-09-29T18:34:59Z</time></trkpt>
<trkpt lat="54.404136" lon="-2.905197"><ele>196</ele><time>2009-09-29T18:36:01Z</time></trkpt>
<trkpt lat="54.403565" lon="-2.903505"><ele>209</ele><time>2009-09-29T18:36:53Z</time></trkpt>
<trkpt lat="54.402936" lon="-2.902244"><ele>219</ele><time>2009-09-29T18:37:34Z</time></trkpt>
<trkpt lat="54.401932" lon="-2.900697"><ele>224</ele><time>2009-09-29T18:38:17Z</time></trkpt>
<trkpt lat="54.401115" lon="-2.898106"><ele>226</ele><time>2009-09-29T18:38:49Z</time></trkpt>
<trkpt lat="54.399079" lon="-2.893933"><ele>234</ele><time>2009-09-29T18:40:02Z</time></trkpt>
<trkpt lat="54.398318" lon="-2.892361"><ele>235</ele><time>2009-09-29T18:40:27Z</time></trkpt>
<trkpt lat="54.397566" lon="-2.889449"><ele>233</ele><time>2009-09-29T18:40:57Z</time></trkpt>
<trkpt lat="54.398683" lon="-2.889165"><ele>239</ele><time>2009-09-29T18:41:42Z</time></trkpt>
<trkpt lat="54.399704" lon="-2.889649"><ele>233</ele><time>2009-09-29T18:42:07Z</time></trkpt>
<trkpt lat="54.401553" lon="-2.890028"><ele>236</ele><time>2009-09-29T18:42:52Z</time></trkpt>
<trkpt lat="54.403384" lon="-2.890376"><ele>245</ele><time>2009-09-29T18:43:40Z</time></trkpt>
<trkpt lat="54.404900" lon="-2.890748"><ele>247</ele><time>2009-09-29T18:44:18Z</time></trkpt>
<trkpt lat="54.406502" lon="-2.891676"><ele>254</ele><time>2009-09-29T18:45:09Z</time></trkpt>
<trkpt lat="54.407797" lon="-2.891565"><ele>259</ele><time>2009-09-29T18:45:55Z</time></trkpt>
<trkpt lat="54.408900" lon="-2.891898"><ele>257</ele><time>2009-09-29T18:46:30Z</time></trkpt>
<trkpt lat="54.409779" lon="-2.892040"><ele>264</ele><time>2009-09-29T18:47:10Z</time></trkpt>
<trkpt lat="54.411267" lon="-2.892689"><ele>261</ele><time>2009-09-29T18:48:07Z</time></trkpt>
<trkpt lat="54.412034" lon="-2.893445"><ele>291</ele><time>2009-09-29T18:51:56Z</time></trkpt>
<trkpt lat="54.413049" lon="-2.894777"><ele>293</ele><time>2009-09-29T18:52:40Z</time></trkpt>
<trkpt lat="54.413784" lon="-2.894931"><ele>301</ele><time>2009-09-29T18:53:11Z</time></trkpt>
<trkpt lat="54.414399" lon="-2.895669"><ele>302</ele><time>2009-09-29T18:53:42Z</time></trkpt>
<trkpt lat="54.415716" lon="-2.896268"><ele>315</ele><time>2009-09-29T18:54:27Z</time></trkpt>
<trkpt lat="54.416984" lon="-2.896126"><ele>316</ele><time>2009-09-29T18:54:57Z</time></trkpt>
<trkpt lat="54.418204" lon="-2.895290"><ele>318</ele><time>2009-09-29T18:56:27Z</time></trkpt>
<trkpt lat="54.418315" lon="-2.896047"><ele>330</ele><time>2009-09-29T18:57:42Z</time></trkpt>
<trkpt lat="54.417685" lon="-2.897313"><ele>298</ele><time>2009-09-29T18:58:30Z</time></trkpt>
<trkpt lat="54.417199" lon="-2.898689"><ele>294</ele><time>2009-09-29T18:59:29Z</time></trkpt>
<trkpt lat="54.416615" lon="-2.899863"><ele>291</ele><time>2009-09-29T19:00:04Z</time></trkpt>
<trkpt lat="54.418346" lon="-2.899176"><ele>235</ele><time>2009-09-29T19:01:28Z</time></trkpt>
<trkpt lat="54.420050" lon="-2.898443"><ele>215</ele><time>2009-09-29T19:01:55Z</time></trkpt>
<trkpt lat="54.421115" lon="-2.897850"><ele>210</ele><time>2009-09-29T19:02:24Z</time></trkpt>
<trkpt lat="54.422269" lon="-2.897305"><ele>197</ele><time>2009-09-29T19:02:53Z</time></trkpt>
<trkpt lat="54.425886" lon="-2.895550"><ele>182</ele><time>2009-09-29T19:04:05Z</time></trkpt>
<trkpt lat="54.426998" lon="-2.894726"><ele>182</ele><time>2009-09-29T19:04:24Z</time></trkpt>
<trkpt lat="54.428665" lon="-2.894115"><ele>177</ele><time>2009-09-29T19:04:44Z</time></trkpt>
<trkpt lat="54.430146" lon="-2.893161"><ele>172</ele><time>2009-09-29T19:05:03Z</time></trkpt>
<trkpt lat="54.431403" lon="-2.893373"><ele>203</ele><time>2009-09-29T19:07:25Z</time></trkpt>
<trkpt lat="54.432668" lon="-2.893601"><ele>205</ele><time>2009-09-29T19:07:55Z</time></trkpt>
<trkpt lat="54.433830" lon="-2.893256"><ele>203</ele><time>2009-09-29T19:08:20Z</time></trkpt>
<trkpt lat="54.434787" lon="-2.892645"><ele>197</ele><time>2009-09-29T19:08:42Z</time></trkpt>
<trkpt lat="54.435630" lon="-2.895346"><ele>184</ele><time>2009-09-29T19:09:23Z</time></trkpt>
<trkpt lat="54.435168" lon="-2.897062"><ele>190</ele><time>2009-09-29T19:09:51Z</time></trkpt>
<trkpt lat="54.434036" lon="-2.897069"><ele>189</ele><time>2009-09-29T19:10:14Z</time></trkpt>
<trkpt lat="54.433031" lon="-2.897972"><ele>185</ele><time>2009-09-29T19:10:35Z</time></trkpt>
<trkpt lat="54.430865" lon="-2.897986"><ele>180</ele><time>2009-09-29T19:11:16Z</time></trkpt>
<trkpt lat="54.429331" lon="-2.898831"><ele>178</ele><time>2009-09-29T19:11:51Z</time></trkpt>
<trkpt lat="54.428219" lon="-2.899732"><ele>173</ele><time>2009-09-29T19:12:16Z</time></trkpt>
<trkpt lat="54.427417" lon="-2.899961"><ele>170</ele><time>2009-09-29T19:12:34Z</time></trkpt>
<trkpt lat="54.427362" lon="-2.901285"><ele>167</ele><time>2009-09-29T19:13:04Z</time></trkpt>
<trkpt lat="54.426498" lon="-2.902715"><ele>177</ele><time>2009-09-29T19:14:05Z</time></trkpt>
<trkpt lat="54.426266" lon="-2.903650"><ele>182</ele><time>2009-09-29T19:14:43Z</time></trkpt>
<trkpt lat="54.426904" lon="-2.903695"><ele>191</ele><time>2009-09-29T19:15:17Z</time></trkpt>
<trkpt lat="54.427417" lon="-2.903583"><ele>195</ele><time>2009-09-29T19:15:40Z</time></trkpt>
<trkpt lat="54.428537" lon="-2.902868"><ele>204</ele><time>2009-09-29T19:16:30Z</time></trkpt>
<trkpt lat="54.430262" lon="-2.902890"><ele>226</ele><time>2009-09-29T19:17:27Z</time></trkpt>
<trkpt lat="54.431514" lon="-2.902563"><ele>227</ele><time>2009-09-29T19:19:21Z</time></trkpt>
<trkpt lat="54.432647" lon="-2.902434"><ele>195</ele><time>2009-09-29T19:26:41Z</time></trkpt>
<trkpt lat="54.433548" lon="-2.902130"><ele>191</ele><time>2009-09-29T19:27:39Z</time></trkpt>
<trkpt lat="54.435920" lon="-2.902259"><ele>215</ele><time>2009-09-29T19:29:19Z</time></trkpt>
<trkpt lat="54.436830" lon="-2.901971"><ele>231</ele><time>2009-09-29T19:29:49Z</time></trkpt>
<trkpt lat="54.437971" lon="-2.902058"><ele>253</ele><time>2009-09-29T19:30:25Z</time></trkpt>
<trkpt lat="54.440403" lon="-2.902527"><ele>268</ele><time>2009-09-29T19:31:06Z</time></trkpt>
<trkpt lat="54.442470" lon="-2.902573"><ele>304</ele><time>2009-09-29T19:31:59Z</time></trkpt>
<trkpt lat="54.443700" lon="-2.902692"><ele>310</ele><time>2009-09-29T19:32:41Z</time></trkpt>
<trkpt lat="54.445370" lon="-2.903007"><ele>298</ele><time>2009-09-29T19:33:23Z</time></trkpt>
<trkpt lat="54.446413" lon="-2.904078"><ele>298</ele><time>2009-09-29T19:34:03Z</time></trkpt>
<trkpt lat="54.447401" lon="-2.905318"><ele>291</ele><time>2009-09-29T19:34:38Z</time></trkpt>
<trkpt lat="54.447371" lon="-2.903405"><ele>266</ele><time>2009-09-29T19:40:08Z</time></trkpt>
<trkpt lat="54.446533" lon="-2.902446"><ele>262</ele><time>2009-09-29T19:40:50Z</time></trkpt>
<trkpt lat="54.445120" lon="-2.901552"><ele>252</ele><time>2009-09-29T19:41:27Z</time></trkpt>
<trkpt lat="54.443936" lon="-2.901140"><ele>229</ele><time>2009-09-29T19:42:02Z</time></trkpt>
<trkpt lat="54.443254" lon="-2.901033"><ele>220</ele><time>2009-09-29T19:42:25Z</time></trkpt>
<trkpt lat="54.442385" lon="-2.900751"><ele>217</ele><time>2009-09-29T19:42:58Z</time></trkpt>
<trkpt lat="54.441667" lon="-2.900551"><ele>207</ele><time>2009-09-29T19:43:21Z</time></trkpt>
<trkpt lat="54.440248" lon="-2.900442"><ele>204</ele><time>2009-09-29T19:44:11Z</time></trkpt>
<trkpt lat="54.439082" lon="-2.900093"><ele>198</ele><time>2009-09-29T19:45:04Z</time></trkpt>
<trkpt lat="54.438151" lon="-2.899610"><ele>183</ele><time>2009-09-29T19:45:36Z</time></trkpt>
<trkpt lat="54.437271" lon="-2.899529"><ele>183</ele><time>2009-09-29T19:46:03Z</time></trkpt>
<trkpt lat="54.436285" lon="-2.899107"><ele>184</ele><time>2009-09-29T19:46:32Z</time></trkpt>
<trkpt lat="54.435432" lon="-2.899011"><ele>181</ele><time>2009-09-29T19:46:55Z</time></trkpt>
<trkpt lat="54.434331" lon="-2.899696"><ele>202</ele><time>2009-09-29T19:47:48Z</time></trkpt>
<trkpt lat="54.433715" lon="-2.900268"><ele>206</ele><time>2009-09-29T19:49:01Z</time></trkpt>
<trkpt lat="54.433396" lon="-2.900893"><ele>207</ele><time>2009-09-29T19:49:48Z</time></trkpt>
<trkpt lat="54.432297" lon="-2.901193"><ele>202</ele><time>2009-09-29T19:51:01Z</time></trkpt>
<trkpt lat="54.431349" lon="-2.901866"><ele>211</ele><time>2009-09-29T19:51:55Z</time></trkpt>
<trkpt lat="54.430748" lon="-2.902886"><ele>204</ele><time>2009-09-29T19:52:28Z</time></trkpt>
<trkpt lat="54.428463" lon="-2.903144"><ele>179</ele><time>2009-09-29T19:55:18Z</time></trkpt>
<trkpt lat="54.426564" lon="-2.904689"><ele>174</ele><time>2009-09-29T19:55:44Z</time></trkpt>
<trkpt lat="54.425863" lon="-2.904720"><ele>172</ele><time>2009-09-29T19:56:47Z</time></trkpt>
<trkpt lat="54.425566" lon="-2.904729"><ele>179</ele><time>2009-09-29T20:05:28Z</time></trkpt>
<trkpt lat="54.425879" lon="-2.904890"><ele>179</ele><time>2009-09-29T20:14:22Z</time></trkpt>
<trkpt lat="54.424871" lon="-2.905115"><ele>175</ele><time>2009-09-29T20:23:32Z</time></trkpt>
<trkpt lat="54.423869" lon="-2.905755"><ele>177</ele><time>2009-09-29T20:23:53Z</time></trkpt>
<trkpt lat="54.422879" lon="-2.905918"><ele>169</ele><time>2009-09-29T20:24:11Z</time></trkpt>
<trkpt lat="54.422102" lon="-2.908814"><ele>165</ele><time>2009-09-29T20:25:03Z</time></trkpt>
<trkpt lat="54.421364" lon="-2.910154"><ele>168</ele><time>2009-09-29T20:25:27Z</time></trkpt>
<trkpt lat="54.420196" lon="-2.911284"><ele>169</ele><time>2009-09-29T20:25:52Z</time></trkpt>
<trkpt lat="54.416347" lon="-2.914019"><ele>167</ele><time>2009-09-29T20:27:09Z</time></trkpt>
<trkpt lat="54.414615" lon="-2.914828"><ele>165</ele><time>2009-09-29T20:27:32Z</time></trkpt>
<trkpt lat="54.413283" lon="-2.915014"><ele>168</ele><time>2009-09-29T20:27:52Z</time></trkpt>
<trkpt lat="54.411266" lon="-2.915616"><ele>170</ele><time>2009-09-29T20:28:23Z</time></trkpt>
<trkpt lat="54.410134" lon="-2.916731"><ele>171</ele><time>2009-09-29T20:28:43Z</time></trkpt>
<trkpt lat="54.408888" lon="-2.918691"><ele>188</ele><time>2009-09-29T20:29:16Z</time></trkpt>
<trkpt lat="54.408737" lon="-2.920752"><ele>187</ele><time>2009-09-29T20:29:44Z</time></trkpt>
<trkpt lat="54.408088" lon="-2.922232"><ele>184</ele><time>2009-09-29T20:30:08Z</time></trkpt>
<trkpt lat="54.407820" lon="-2.925539"><ele>167</ele><time>2009-09-29T20:30:38Z</time></trkpt>
<trkpt lat="54.406846" lon="-2.928259"><ele>138</ele><time>2009-09-29T20:31:01Z</time></trkpt>
<trkpt lat="54.406487" lon="-2.930516"><ele>130</ele><time>2009-09-29T20:31:21Z</time></trkpt>
<trkpt lat="54.406213" lon="-2.933498"><ele>120</ele><time>2009-09-29T20:31:55Z</time></trkpt>
<trkpt lat="54.405431" lon="-2.934621"><ele>99</ele><time>2009-09-29T20:32:27Z</time></trkpt>
<trkpt lat="54.405379" lon="-2.935498"><ele>112</ele><time>2009-09-29T20:33:36Z</time></trkpt>
<trkpt lat="54.404619" lon="-2.936127"><ele>113</ele><time>2009-09-29T20:34:11Z</time></trkpt>
<trkpt lat="54.403735" lon="-2.936554"><ele>112</ele><time>2009-09-29T20:34:37Z</time></trkpt>
<trkpt lat="54.402833" lon="-2.936950"><ele>80</ele><time>2009-09-29T20:35:01Z</time></trkpt>
<trkpt lat="54.402553" lon="-2.937251"><ele>71</ele><time>2009-09-29T20:38:15Z</time></trkpt>
<trkpt lat="54.401046" lon="-2.938033"><ele>64</ele><time>2009-09-29T20:48:28Z</time></trkpt>
<trkpt lat="54.403119" lon="-2.942980"><ele>52</ele><time>2009-09-29T20:49:21Z</time></trkpt>
<trkpt lat="54.405002" lon="-2.943577"><ele>67</ele><time>2009-09-29T20:49:54Z</time></trkpt>
<trkpt lat="54.407435" lon="-2.946206"><ele>65</ele><time>2009-09-29T20:50:26Z</time></trkpt>
<trkpt lat="54.409970" lon="-2.948360"><ele>47</ele><time>2009-09-29T20:50:54Z</time></trkpt>
<trkpt lat="54.411485" lon="-2.948950"><ele>47</ele><time>2009-09-29T20:51:11Z</time></trkpt>
<trkpt lat="54.412598" lon="-2.951395"><ele>44</ele><time>2009-09-29T20:51:36Z</time></trkpt>
</trkseg>
</trk>

</gpx>
————————————————————————————–

Advertisements

Tags: ,

Leave a Reply

Fill in your details below or click an icon to log in:

WordPress.com Logo

You are commenting using your WordPress.com account. Log Out / Change )

Twitter picture

You are commenting using your Twitter account. Log Out / Change )

Facebook photo

You are commenting using your Facebook account. Log Out / Change )

Google+ photo

You are commenting using your Google+ account. Log Out / Change )

Connecting to %s


%d bloggers like this: